sensor_id;sensor_type;location;lat;lon;timestamp;temperature;humidity
30174;DHT22;16985;50.814;8.530;2023-02-01T00:05:22;3.90;99.90
30174;DHT22;16985;50.814;8.530;2023-02-01T00:07:48;4.00;99.90
30174;DHT22;16985;50.814;8.530;2023-02-01T00:10:22;4.00;99.90
30174;DHT22;16985;50.814;8.530;2023-02-01T00:15:15;4.00;99.90
30174;DHT22;16985;50.814;8.530;2023-02-01T00:17:41;4.00;99.90
30174;DHT22;16985;50.814;8.530;2023-02-01T00:20:07;4.00;99.90
30174;DHT22;16985;50.814;8.530;2023-02-01T00:22:35;4.00;99.90
30174;DHT22;16985;50.814;8.530;2023-02-01T00:25:01;4.10;99.90
30174;DHT22;16985;50.814;8.530;2023-02-01T00:27:27;3.70;99.90
30174;DHT22;16985;50.814;8.530;2023-02-01T00:29:55;4.20;99.90
30174;DHT22;16985;50.814;8.530;2023-02-01T00:32:20;4.10;99.90
30174;DHT22;16985;50.814;8.530;2023-02-01T00:34:47;4.20;99.90
30174;DHT22;16985;50.814;8.530;2023-02-01T00:37:12;4.10;99.90
30174;DHT22;16985;50.814;8.530;2023-02-01T00:39:38;4.10;99.90
30174;DHT22;16985;50.814;8.530;2023-02-01T00:42:04;4.20;99.90
30174;DHT22;16985;50.814;8.530;2023-02-01T00:44:30;4.60;99.90
30174;DHT22;16985;50.814;8.530;2023-02-01T00:46:59;4.10;99.90
30174;DHT22;16985;50.814;8.530;2023-02-01T00:49:25;4.20;99.90
30174;DHT22;16985;50.814;8.530;2023-02-01T00:51:52;4.10;99.90
30174;DHT22;16985;50.814;8.530;2023-02-01T00:54:18;4.10;99.90
30174;DHT22;16985;50.814;8.530;2023-02-01T00:56:44;4.10;99.90
30174;DHT22;16985;50.814;8.530;2023-02-01T00:59:12;4.20;99.90
30174;DHT22;16985;50.814;8.530;2023-02-01T01:01:38;4.20;99.90
30174;DHT22;16985;50.814;8.530;2023-02-01T01:04:04;4.20;99.90
30174;DHT22;16985;50.814;8.530;2023-02-01T01:06:32;4.20;99.90
30174;DHT22;16985;50.814;8.530;2023-02-01T01:09:00;4.30;99.90
30174;DHT22;16985;50.814;8.530;2023-02-01T01:11:30;4.30;99.90
30174;DHT22;16985;50.814;8.530;2023-02-01T01:13:58;4.30;99.90
30174;DHT22;16985;50.814;8.530;2023-02-01T01:16:26;4.30;99.90
30174;DHT22;16985;50.814;8.530;2023-02-01T01:18:54;4.30;99.90
30174;DHT22;16985;50.814;8.530;2023-02-01T01:21:20;4.30;99.90
30174;DHT22;16985;50.814;8.530;2023-02-01T01:23:47;4.20;99.90
30174;DHT22;16985;50.814;8.530;2023-02-01T01:26:16;4.30;99.90
30174;DHT22;16985;50.814;8.530;2023-02-01T01:28:44;4.20;99.90
30174;DHT22;16985;50.814;8.530;2023-02-01T01:31:12;4.30;99.90
30174;DHT22;16985;50.814;8.530;2023-02-01T01:33:39;4.30;99.90
30174;DHT22;16985;50.814;8.530;2023-02-01T01:36:07;4.30;99.90
30174;DHT22;16985;50.814;8.530;2023-02-01T01:38:38;4.20;99.90
30174;DHT22;16985;50.814;8.530;2023-02-01T01:41:05;4.20;99.90
30174;DHT22;16985;50.814;8.530;2023-02-01T01:46:20;4.20;99.90
30174;DHT22;16985;50.814;8.530;2023-02-01T01:48:52;4.20;99.90
30174;DHT22;16985;50.814;8.530;2023-02-01T01:51:23;4.30;99.90
30174;DHT22;16985;50.814;8.530;2023-02-01T01:53:59;4.20;99.90
30174;DHT22;16985;50.814;8.530;2023-02-01T01:56:30;4.30;99.90
30174;DHT22;16985;50.814;8.530;2023-02-01T01:58:58;4.30;99.90
30174;DHT22;16985;50.814;8.530;2023-02-01T02:01:24;6.00;99.90
30174;DHT22;16985;50.814;8.530;2023-02-01T02:03:50;4.30;99.90
30174;DHT22;16985;50.814;8.530;2023-02-01T02:06:30;4.30;99.90
30174;DHT22;16985;50.814;8.530;2023-02-01T02:09:00;4.30;99.90
30174;DHT22;16985;50.814;8.530;2023-02-01T02:11:26;4.30;99.90
30174;DHT22;16985;50.814;8.530;2023-02-01T02:13:54;4.30;99.90
30174;DHT22;16985;50.814;8.530;2023-02-01T02:34:21;4.20;99.90
30174;DHT22;16985;50.814;8.530;2023-02-01T02:37:17;4.20;99.90
30174;DHT22;16985;50.814;8.530;2023-02-01T02:42:47;4.20;99.90
30174;DHT22;16985;50.814;8.530;2023-02-01T02:46:16;4.10;99.90
30174;DHT22;16985;50.814;8.530;2023-02-01T02:49:12;4.10;99.90
30174;DHT22;16985;50.814;8.530;2023-02-01T02:51:49;4.10;99.90
30174;DHT22;16985;50.814;8.530;2023-02-01T02:54:43;4.20;99.90
30174;DHT22;16985;50.814;8.530;2023-02-01T02:57:29;4.20;99.90
30174;DHT22;16985;50.814;8.530;2023-02-01T03:00:19;4.10;99.90
30174;DHT22;16985;50.814;8.530;2023-02-01T03:03:05;4.10;99.90
30174;DHT22;16985;50.814;8.530;2023-02-01T03:05:51;4.10;99.90
30174;DHT22;16985;50.814;8.530;2023-02-01T03:08:26;4.10;99.90
30174;DHT22;16985;50.814;8.530;2023-02-01T03:11:08;4.10;99.90
30174;DHT22;16985;50.814;8.530;2023-02-01T03:21:31;4.00;99.90
30174;DHT22;16985;50.814;8.530;2023-02-01T03:24:04;3.60;99.90
30174;DHT22;16985;50.814;8.530;2023-02-01T03:26:37;2.90;99.90
30174;DHT22;16985;50.814;8.530;2023-02-01T03:29:12;4.00;99.90
30174;DHT22;16985;50.814;8.530;2023-02-01T03:31:42;4.00;99.90
30174;DHT22;16985;50.814;8.530;2023-02-01T03:34:08;4.00;99.90
30174;DHT22;16985;50.814;8.530;2023-02-01T03:36:49;4.00;99.90
30174;DHT22;16985;50.814;8.530;2023-02-01T03:42:24;4.00;99.90
30174;DHT22;16985;50.814;8.530;2023-02-01T03:47:44;3.90;99.90
30174;DHT22;16985;50.814;8.530;2023-02-01T03:50:16;3.90;99.90
30174;DHT22;16985;50.814;8.530;2023-02-01T03:52:47;2.20;99.90
30174;DHT22;16985;50.814;8.530;2023-02-01T03:55:19;4.00;99.90
30174;DHT22;16985;50.814;8.530;2023-02-01T03:57:59;3.90;99.90
30174;DHT22;16985;50.814;8.530;2023-02-01T04:00:29;4.00;99.90
30174;DHT22;16985;50.814;8.530;2023-02-01T04:02:56;3.90;99.90
30174;DHT22;16985;50.814;8.530;2023-02-01T04:05:22;4.00;99.90
30174;DHT22;16985;50.814;8.530;2023-02-01T04:07:59;3.90;99.90
30174;DHT22;16985;50.814;8.530;2023-02-01T04:10:25;4.00;99.90
30174;DHT22;16985;50.814;8.530;2023-02-01T04:12:51;4.00;99.90
30174;DHT22;16985;50.814;8.530;2023-02-01T04:15:17;4.00;99.90
30174;DHT22;16985;50.814;8.530;2023-02-01T04:17:43;4.00;99.90
30174;DHT22;16985;50.814;8.530;2023-02-01T04:20:10;4.00;99.90
30174;DHT22;16985;50.814;8.530;2023-02-01T04:22:36;4.00;99.90
30174;DHT22;16985;50.814;8.530;2023-02-01T04:25:02;4.00;99.90
30174;DHT22;16985;50.814;8.530;2023-02-01T04:27:28;4.00;99.90
30174;DHT22;16985;50.814;8.530;2023-02-01T04:29:53;4.00;99.90
30174;DHT22;16985;50.814;8.530;2023-02-01T04:32:19;4.00;99.90
30174;DHT22;16985;50.814;8.530;2023-02-01T04:34:45;3.90;99.90
30174;DHT22;16985;50.814;8.530;2023-02-01T04:37:11;4.00;99.90
30174;DHT22;16985;50.814;8.530;2023-02-01T04:39:37;3.90;99.90
30174;DHT22;16985;50.814;8.530;2023-02-01T04:42:03;3.90;99.90
30174;DHT22;16985;50.814;8.530;2023-02-01T04:44:29;4.00;99.90
30174;DHT22;16985;50.814;8.530;2023-02-01T04:46:55;3.90;99.90
30174;DHT22;16985;50.814;8.530;2023-02-01T04:49:21;3.90;99.90
30174;DHT22;16985;50.814;8.530;2023-02-01T04:51:47;3.80;99.90
30174;DHT22;16985;50.814;8.530;2023-02-01T04:54:13;3.80;99.90
30174;DHT22;16985;50.814;8.530;2023-02-01T04:56:40;3.80;99.90
30174;DHT22;16985;50.814;8.530;2023-02-01T04:59:06;3.80;99.90
30174;DHT22;16985;50.814;8.530;2023-02-01T05:01:32;3.80;99.90
30174;DHT22;16985;50.814;8.530;2023-02-01T05:03:58;3.80;99.90
30174;DHT22;16985;50.814;8.530;2023-02-01T05:06:24;3.80;99.90
30174;DHT22;16985;50.814;8.530;2023-02-01T05:08:50;3.80;99.90
30174;DHT22;16985;50.814;8.530;2023-02-01T05:11:16;3.80;99.90
30174;DHT22;16985;50.814;8.530;2023-02-01T05:14:00;3.70;99.90
30174;DHT22;16985;50.814;8.530;2023-02-01T05:16:26;3.70;99.90
30174;DHT22;16985;50.814;8.530;2023-02-01T05:18:52;3.70;99.90
30174;DHT22;16985;50.814;8.530;2023-02-01T05:21:18;3.70;99.90
30174;DHT22;16985;50.814;8.530;2023-02-01T05:23:44;3.70;99.90
30174;DHT22;16985;50.814;8.530;2023-02-01T05:26:28;3.70;99.90
30174;DHT22;16985;50.814;8.530;2023-02-01T05:28:54;3.70;99.90
30174;DHT22;16985;50.814;8.530;2023-02-01T05:31:20;3.70;99.90
30174;DHT22;16985;50.814;8.530;2023-02-01T05:33:46;3.70;99.90
30174;DHT22;16985;50.814;8.530;2023-02-01T05:36:12;3.40;99.90
30174;DHT22;16985;50.814;8.530;2023-02-01T05:38:38;3.70;99.90
30174;DHT22;16985;50.814;8.530;2023-02-01T05:41:04;5.00;99.90
30174;DHT22;16985;50.814;8.530;2023-02-01T05:43:30;3.70;99.90
30174;DHT22;16985;50.814;8.530;2023-02-01T05:45:56;3.70;99.90
30174;DHT22;16985;50.814;8.530;2023-02-01T05:48:21;3.70;99.90
30174;DHT22;16985;50.814;8.530;2023-02-01T05:50:50;3.70;99.90
30174;DHT22;16985;50.814;8.530;2023-02-01T05:53:16;3.70;99.90
30174;DHT22;16985;50.814;8.530;2023-02-01T05:55:42;3.80;99.90
30174;DHT22;16985;50.814;8.530;2023-02-01T05:58:08;3.70;99.90
30174;DHT22;16985;50.814;8.530;2023-02-01T06:00:34;3.70;99.90
30174;DHT22;16985;50.814;8.530;2023-02-01T06:03:00;3.80;99.90
30174;DHT22;16985;50.814;8.530;2023-02-01T06:05:26;3.80;99.90
30174;DHT22;16985;50.814;8.530;2023-02-01T06:07:52;3.80;99.90
30174;DHT22;16985;50.814;8.530;2023-02-01T06:10:19;3.80;99.90
30174;DHT22;16985;50.814;8.530;2023-02-01T06:12:45;3.80;99.90
30174;DHT22;16985;50.814;8.530;2023-02-01T06:15:12;3.90;99.90
30174;DHT22;16985;50.814;8.530;2023-02-01T06:17:38;3.90;99.90
30174;DHT22;16985;50.814;8.530;2023-02-01T06:20:07;3.90;99.90
30174;DHT22;16985;50.814;8.530;2023-02-01T06:22:33;3.90;99.90
30174;DHT22;16985;50.814;8.530;2023-02-01T06:25:03;3.80;99.90
30174;DHT22;16985;50.814;8.530;2023-02-01T06:27:29;3.80;99.90
30174;DHT22;16985;50.814;8.530;2023-02-01T06:29:55;3.90;99.90
30174;DHT22;16985;50.814;8.530;2023-02-01T06:32:21;3.90;99.90
30174;DHT22;16985;50.814;8.530;2023-02-01T06:34:48;3.90;99.90
30174;DHT22;16985;50.814;8.530;2023-02-01T06:37:14;3.90;99.90
30174;DHT22;16985;50.814;8.530;2023-02-01T06:39:39;4.00;99.90
30174;DHT22;16985;50.814;8.530;2023-02-01T06:42:05;4.00;99.90
30174;DHT22;16985;50.814;8.530;2023-02-01T06:44:31;4.00;99.90
30174;DHT22;16985;50.814;8.530;2023-02-01T06:46:57;5.40;99.90
30174;DHT22;16985;50.814;8.530;2023-02-01T06:49:23;4.00;99.90
30174;DHT22;16985;50.814;8.530;2023-02-01T06:51:49;4.00;99.90
30174;DHT22;16985;50.814;8.530;2023-02-01T06:54:14;6.40;99.90
30174;DHT22;16985;50.814;8.530;2023-02-01T06:56:40;4.40;99.90
30174;DHT22;16985;50.814;8.530;2023-02-01T06:59:07;4.00;99.90
30174;DHT22;16985;50.814;8.530;2023-02-01T07:01:34;4.00;99.90
30174;DHT22;16985;50.814;8.530;2023-02-01T07:04:00;4.10;99.90
30174;DHT22;16985;50.814;8.530;2023-02-01T07:06:26;4.10;99.90
30174;DHT22;16985;50.814;8.530;2023-02-01T07:08:52;4.10;99.90
30174;DHT22;16985;50.814;8.530;2023-02-01T07:11:21;4.10;99.90
30174;DHT22;16985;50.814;8.530;2023-02-01T07:13:47;4.10;99.90
30174;DHT22;16985;50.814;8.530;2023-02-01T07:16:16;4.10;99.90
30174;DHT22;16985;50.814;8.530;2023-02-01T07:18:44;4.10;99.90
30174;DHT22;16985;50.814;8.530;2023-02-01T07:21:11;4.10;99.90
30174;DHT22;16985;50.814;8.530;2023-02-01T07:23:37;4.10;99.90
30174;DHT22;16985;50.814;8.530;2023-02-01T07:26:06;4.10;99.90
30174;DHT22;16985;50.814;8.530;2023-02-01T07:28:35;4.10;99.90
30174;DHT22;16985;50.814;8.530;2023-02-01T07:31:06;4.10;99.90
30174;DHT22;16985;50.814;8.530;2023-02-01T07:33:33;4.10;99.90
30174;DHT22;16985;50.814;8.530;2023-02-01T07:36:01;4.10;99.90
30174;DHT22;16985;50.814;8.530;2023-02-01T07:38:28;4.20;99.90
30174;DHT22;16985;50.814;8.530;2023-02-01T07:41:03;4.20;99.90
30174;DHT22;16985;50.814;8.530;2023-02-01T07:43:30;4.20;99.90
30174;DHT22;16985;50.814;8.530;2023-02-01T07:45:57;4.10;99.90
30174;DHT22;16985;50.814;8.530;2023-02-01T07:48:24;4.20;99.90
30174;DHT22;16985;50.814;8.530;2023-02-01T07:51:01;4.20;99.90
30174;DHT22;16985;50.814;8.530;2023-02-01T07:53:32;4.20;99.90
30174;DHT22;16985;50.814;8.530;2023-02-01T07:55:59;4.20;99.90
30174;DHT22;16985;50.814;8.530;2023-02-01T07:58:26;4.20;99.90
30174;DHT22;16985;50.814;8.530;2023-02-01T08:00:52;4.20;99.90
30174;DHT22;16985;50.814;8.530;2023-02-01T08:03:37;4.20;99.90
30174;DHT22;16985;50.814;8.530;2023-02-01T08:06:03;4.20;99.90
30174;DHT22;16985;50.814;8.530;2023-02-01T08:08:29;4.30;99.90
30174;DHT22;16985;50.814;8.530;2023-02-01T08:11:04;4.30;99.90
30174;DHT22;16985;50.814;8.530;2023-02-01T08:13:33;4.30;99.90
30174;DHT22;16985;50.814;8.530;2023-02-01T08:16:05;4.20;99.90
30174;DHT22;16985;50.814;8.530;2023-02-01T08:18:33;4.50;99.90
30174;DHT22;16985;50.814;8.530;2023-02-01T08:21:08;4.20;99.90
30174;DHT22;16985;50.814;8.530;2023-02-01T08:23:35;4.20;99.90
30174;DHT22;16985;50.814;8.530;2023-02-01T08:28:38;3.60;99.90
30174;DHT22;16985;50.814;8.530;2023-02-01T08:31:08;4.20;99.90
30174;DHT22;16985;50.814;8.530;2023-02-01T08:33:36;4.20;99.90
30174;DHT22;16985;50.814;8.530;2023-02-01T08:36:05;4.20;99.90
30174;DHT22;16985;50.814;8.530;2023-02-01T08:38:34;4.20;99.90
30174;DHT22;16985;50.814;8.530;2023-02-01T08:41:04;4.20;99.90
30174;DHT22;16985;50.814;8.530;2023-02-01T08:43:31;4.20;99.90
30174;DHT22;16985;50.814;8.530;2023-02-01T08:45:57;4.20;99.90
30174;DHT22;16985;50.814;8.530;2023-02-01T08:48:22;4.20;99.90
30174;DHT22;16985;50.814;8.530;2023-02-01T08:50:48;4.20;99.90
30174;DHT22;16985;50.814;8.530;2023-02-01T08:53:14;4.20;99.90
30174;DHT22;16985;50.814;8.530;2023-02-01T08:55:41;4.20;99.90
30174;DHT22;16985;50.814;8.530;2023-02-01T08:58:06;4.20;99.90
30174;DHT22;16985;50.814;8.530;2023-02-01T09:00:32;4.20;99.90
30174;DHT22;16985;50.814;8.530;2023-02-01T09:02:58;4.20;99.90
30174;DHT22;16985;50.814;8.530;2023-02-01T09:05:24;4.20;99.90
30174;DHT22;16985;50.814;8.530;2023-02-01T09:07:55;4.30;99.90
30174;DHT22;16985;50.814;8.530;2023-02-01T09:10:21;4.20;99.90
30174;DHT22;16985;50.814;8.530;2023-02-01T09:12:46;4.20;99.90
30174;DHT22;16985;50.814;8.530;2023-02-01T09:15:12;4.20;99.90
30174;DHT22;16985;50.814;8.530;2023-02-01T09:17:38;4.30;99.90
30174;DHT22;16985;50.814;8.530;2023-02-01T09:20:05;4.30;99.90
30174;DHT22;16985;50.814;8.530;2023-02-01T09:22:31;4.30;99.90
30174;DHT22;16985;50.814;8.530;2023-02-01T09:24:56;4.30;99.90
30174;DHT22;16985;50.814;8.530;2023-02-01T09:27:22;4.30;99.90
30174;DHT22;16985;50.814;8.530;2023-02-01T09:29:48;4.30;99.90
30174;DHT22;16985;50.814;8.530;2023-02-01T09:32:21;4.30;99.90
30174;DHT22;16985;50.814;8.530;2023-02-01T09:34:48;4.30;99.90
30174;DHT22;16985;50.814;8.530;2023-02-01T09:37:15;4.30;99.90
30174;DHT22;16985;50.814;8.530;2023-02-01T09:39:41;4.30;99.90
30174;DHT22;16985;50.814;8.530;2023-02-01T09:48:03;4.30;99.90
30174;DHT22;16985;50.814;8.530;2023-02-01T09:50:38;4.90;99.90
30174;DHT22;16985;50.814;8.530;2023-02-01T09:53:24;4.40;99.90
30174;DHT22;16985;50.814;8.530;2023-02-01T09:55:57;4.40;99.90
30174;DHT22;16985;50.814;8.530;2023-02-01T09:58:37;4.40;99.90
30174;DHT22;16985;50.814;8.530;2023-02-01T10:01:24;4.40;99.90
30174;DHT22;16985;50.814;8.530;2023-02-01T10:03:57;4.40;99.90
30174;DHT22;16985;50.814;8.530;2023-02-01T10:06:47;4.40;99.90
30174;DHT22;16985;50.814;8.530;2023-02-01T10:21:17;4.50;99.90
30174;DHT22;16985;50.814;8.530;2023-02-01T10:30:04;4.50;99.90
30174;DHT22;16985;50.814;8.530;2023-02-01T10:32:39;4.50;99.90
30174;DHT22;16985;50.814;8.530;2023-02-01T10:35:18;4.60;99.90
30174;DHT22;16985;50.814;8.530;2023-02-01T10:37:48;4.60;99.90
30174;DHT22;16985;50.814;8.530;2023-02-01T10:40:24;4.60;99.90
30174;DHT22;16985;50.814;8.530;2023-02-01T10:42:57;4.60;99.90
30174;DHT22;16985;50.814;8.530;2023-02-01T10:45:28;4.60;99.90
30174;DHT22;16985;50.814;8.530;2023-02-01T10:47:57;4.60;99.90
30174;DHT22;16985;50.814;8.530;2023-02-01T10:53:31;4.70;99.90
30174;DHT22;16985;50.814;8.530;2023-02-01T10:56:10;4.70;99.90
30174;DHT22;16985;50.814;8.530;2023-02-01T10:58:44;4.70;99.90
30174;DHT22;16985;50.814;8.530;2023-02-01T11:01:50;4.80;99.90
30174;DHT22;16985;50.814;8.530;2023-02-01T11:04:19;4.80;99.90
30174;DHT22;16985;50.814;8.530;2023-02-01T11:06:52;4.80;99.90
30174;DHT22;16985;50.814;8.530;2023-02-01T11:09:26;4.80;99.90
30174;DHT22;16985;50.814;8.530;2023-02-01T11:11:55;4.80;99.90
30174;DHT22;16985;50.814;8.530;2023-02-01T11:17:27;4.90;99.90
30174;DHT22;16985;50.814;8.530;2023-02-01T11:20:00;4.90;99.90
30174;DHT22;16985;50.814;8.530;2023-02-01T11:22:27;4.90;99.90
30174;DHT22;16985;50.814;8.530;2023-02-01T11:24:55;4.90;99.90
30174;DHT22;16985;50.814;8.530;2023-02-01T11:27:23;4.90;99.90
30174;DHT22;16985;50.814;8.530;2023-02-01T11:29:50;4.90;99.90
30174;DHT22;16985;50.814;8.530;2023-02-01T11:32:20;5.00;99.90
30174;DHT22;16985;50.814;8.530;2023-02-01T11:35:01;4.90;99.90
30174;DHT22;16985;50.814;8.530;2023-02-01T11:37:32;5.00;99.90
30174;DHT22;16985;50.814;8.530;2023-02-01T11:43:15;5.00;99.90
30174;DHT22;16985;50.814;8.530;2023-02-01T11:48:29;5.00;99.90
30174;DHT22;16985;50.814;8.530;2023-02-01T11:53:52;5.00;99.90
30174;DHT22;16985;50.814;8.530;2023-02-01T11:56:31;5.00;99.90
30174;DHT22;16985;50.814;8.530;2023-02-01T11:59:20;5.00;99.90
30174;DHT22;16985;50.814;8.530;2023-02-01T12:02:18;5.00;99.90
30174;DHT22;16985;50.814;8.530;2023-02-01T12:08:34;5.00;99.90
30174;DHT22;16985;50.814;8.530;2023-02-01T12:12:01;5.10;99.90
30174;DHT22;16985;50.814;8.530;2023-02-01T12:37:57;5.10;99.90
30174;DHT22;16985;50.814;8.530;2023-02-01T12:43:53;5.10;99.90
30174;DHT22;16985;50.814;8.530;2023-02-01T12:46:46;5.10;99.90
30174;DHT22;16985;50.814;8.530;2023-02-01T12:49:23;5.10;99.90
30174;DHT22;16985;50.814;8.530;2023-02-01T12:52:04;5.20;99.90
30174;DHT22;16985;50.814;8.530;2023-02-01T12:54:48;5.20;99.90
30174;DHT22;16985;50.814;8.530;2023-02-01T12:57:31;5.20;99.90
30174;DHT22;16985;50.814;8.530;2023-02-01T13:00:52;5.20;99.90
30174;DHT22;16985;50.814;8.530;2023-02-01T13:03:37;5.20;99.90
30174;DHT22;16985;50.814;8.530;2023-02-01T13:06:32;5.30;99.90
30174;DHT22;16985;50.814;8.530;2023-02-01T13:11:59;5.20;99.90
30174;DHT22;16985;50.814;8.530;2023-02-01T13:14:43;5.20;99.90
30174;DHT22;16985;50.814;8.530;2023-02-01T13:17:26;5.30;99.90
30174;DHT22;16985;50.814;8.530;2023-02-01T13:20:09;5.30;99.90
30174;DHT22;16985;50.814;8.530;2023-02-01T13:23:11;5.30;99.90
30174;DHT22;16985;50.814;8.530;2023-02-01T13:25:53;5.50;99.90
30174;DHT22;16985;50.814;8.530;2023-02-01T13:31:50;5.20;99.90
30174;DHT22;16985;50.814;8.530;2023-02-01T13:37:35;5.20;99.90
30174;DHT22;16985;50.814;8.530;2023-02-01T13:42:59;5.20;99.90
30174;DHT22;16985;50.814;8.530;2023-02-01T13:45:56;5.10;99.90
30174;DHT22;16985;50.814;8.530;2023-02-01T13:48:38;5.10;99.90
30174;DHT22;16985;50.814;8.530;2023-02-01T13:51:12;5.10;99.90
30174;DHT22;16985;50.814;8.530;2023-02-01T13:53:45;5.10;99.90
30174;DHT22;16985;50.814;8.530;2023-02-01T13:56:16;5.10;99.90
30174;DHT22;16985;50.814;8.530;2023-02-01T13:58:47;5.10;99.90
30174;DHT22;16985;50.814;8.530;2023-02-01T14:11:39;5.40;99.90
30174;DHT22;16985;50.814;8.530;2023-02-01T14:19:31;5.20;99.90
30174;DHT22;16985;50.814;8.530;2023-02-01T14:24:52;6.40;99.90
30174;DHT22;16985;50.814;8.530;2023-02-01T14:27:30;5.20;99.90
30174;DHT22;16985;50.814;8.530;2023-02-01T14:30:05;5.20;99.90
30174;DHT22;16985;50.814;8.530;2023-02-01T14:32:40;5.50;99.90
30174;DHT22;16985;50.814;8.530;2023-02-01T14:35:20;5.20;99.90
30174;DHT22;16985;50.814;8.530;2023-02-01T14:37:52;5.10;99.90
30174;DHT22;16985;50.814;8.530;2023-02-01T14:40:24;5.20;99.90
30174;DHT22;16985;50.814;8.530;2023-02-01T14:42:52;5.20;99.90
30174;DHT22;16985;50.814;8.530;2023-02-01T14:55:42;5.10;99.90
30174;DHT22;16985;50.814;8.530;2023-02-01T15:01:25;5.00;99.90
30174;DHT22;16985;50.814;8.530;2023-02-01T15:09:28;5.00;99.90
30174;DHT22;16985;50.814;8.530;2023-02-01T15:19:21;5.00;99.90
30174;DHT22;16985;50.814;8.530;2023-02-01T15:21:50;5.00;99.90
30174;DHT22;16985;50.814;8.530;2023-02-01T15:24:26;5.00;99.90
30174;DHT22;16985;50.814;8.530;2023-02-01T15:27:03;5.00;99.90
30174;DHT22;16985;50.814;8.530;2023-02-01T15:29:30;5.00;99.90
30174;DHT22;16985;50.814;8.530;2023-02-01T15:31:58;5.00;99.90
30174;DHT22;16985;50.814;8.530;2023-02-01T15:34:45;5.00;99.90
30174;DHT22;16985;50.814;8.530;2023-02-01T15:37:13;4.90;99.90
30174;DHT22;16985;50.814;8.530;2023-02-01T15:45:19;4.90;99.90
30174;DHT22;16985;50.814;8.530;2023-02-01T15:47:48;7.50;99.90
30174;DHT22;16985;50.814;8.530;2023-02-01T15:50:19;4.90;99.90
30174;DHT22;16985;50.814;8.530;2023-02-01T15:52:48;5.00;99.90
30174;DHT22;16985;50.814;8.530;2023-02-01T15:57:48;4.90;99.90
30174;DHT22;16985;50.814;8.530;2023-02-01T16:03:06;4.90;99.90
30174;DHT22;16985;50.814;8.530;2023-02-01T16:05:59;4.90;99.90
30174;DHT22;16985;50.814;8.530;2023-02-01T16:08:29;5.40;99.90
30174;DHT22;16985;50.814;8.530;2023-02-01T16:13:47;4.90;99.90
30174;DHT22;16985;50.814;8.530;2023-02-01T16:16:13;4.90;99.90
30174;DHT22;16985;50.814;8.530;2023-02-01T16:18:40;4.90;99.90
30174;DHT22;16985;50.814;8.530;2023-02-01T16:21:06;7.00;99.90
30174;DHT22;16985;50.814;8.530;2023-02-01T16:23:36;4.90;99.90
30174;DHT22;16985;50.814;8.530;2023-02-01T16:26:03;4.90;99.90
30174;DHT22;16985;50.814;8.530;2023-02-01T16:28:29;4.90;99.90
30174;DHT22;16985;50.814;8.530;2023-02-01T16:30:55;4.90;99.90
30174;DHT22;16985;50.814;8.530;2023-02-01T16:33:22;4.90;99.90
30174;DHT22;16985;50.814;8.530;2023-02-01T16:35:49;4.80;99.90
30174;DHT22;16985;50.814;8.530;2023-02-01T16:38:17;4.90;99.90
30174;DHT22;16985;50.814;8.530;2023-02-01T16:40:46;4.90;99.90
30174;DHT22;16985;50.814;8.530;2023-02-01T16:43:22;4.80;99.90
30174;DHT22;16985;50.814;8.530;2023-02-01T16:45:51;4.80;99.90
30174;DHT22;16985;50.814;8.530;2023-02-01T16:48:30;4.80;99.90
30174;DHT22;16985;50.814;8.530;2023-02-01T16:51:10;4.80;99.90
30174;DHT22;16985;50.814;8.530;2023-02-01T16:53:37;4.80;99.90
30174;DHT22;16985;50.814;8.530;2023-02-01T16:56:15;4.80;99.90
30174;DHT22;16985;50.814;8.530;2023-02-01T16:58:42;4.80;99.90
30174;DHT22;16985;50.814;8.530;2023-02-01T17:01:10;4.80;99.90
30174;DHT22;16985;50.814;8.530;2023-02-01T17:03:38;4.80;99.90
30174;DHT22;16985;50.814;8.530;2023-02-01T17:06:04;4.80;99.90
30174;DHT22;16985;50.814;8.530;2023-02-01T17:08:34;4.80;99.90
30174;DHT22;16985;50.814;8.530;2023-02-01T17:11:04;4.80;99.90
30174;DHT22;16985;50.814;8.530;2023-02-01T17:13:31;4.80;99.90
30174;DHT22;16985;50.814;8.530;2023-02-01T17:16:25;4.70;99.90
30174;DHT22;16985;50.814;8.530;2023-02-01T17:19:02;5.00;99.90
30174;DHT22;16985;50.814;8.530;2023-02-01T17:21:44;4.80;99.90
30174;DHT22;16985;50.814;8.530;2023-02-01T17:24:14;4.70;99.90
30174;DHT22;16985;50.814;8.530;2023-02-01T17:26:42;4.80;99.90
30174;DHT22;16985;50.814;8.530;2023-02-01T17:29:08;6.50;99.90
30174;DHT22;16985;50.814;8.530;2023-02-01T17:31:39;4.80;99.90
30174;DHT22;16985;50.814;8.530;2023-02-01T17:34:12;4.80;99.90
30174;DHT22;16985;50.814;8.530;2023-02-01T17:36:40;4.80;99.90
30174;DHT22;16985;50.814;8.530;2023-02-01T17:39:07;4.80;99.90
30174;DHT22;16985;50.814;8.530;2023-02-01T17:41:34;4.80;99.90
30174;DHT22;16985;50.814;8.530;2023-02-01T17:44:01;4.80;99.90
30174;DHT22;16985;50.814;8.530;2023-02-01T17:46:27;4.80;99.90
30174;DHT22;16985;50.814;8.530;2023-02-01T17:48:54;4.80;99.90
30174;DHT22;16985;50.814;8.530;2023-02-01T17:51:26;4.80;99.90
30174;DHT22;16985;50.814;8.530;2023-02-01T17:53:53;4.80;99.90
30174;DHT22;16985;50.814;8.530;2023-02-01T17:56:24;4.80;99.90
30174;DHT22;16985;50.814;8.530;2023-02-01T17:58:50;4.80;99.90
30174;DHT22;16985;50.814;8.530;2023-02-01T18:01:21;4.80;99.90
30174;DHT22;16985;50.814;8.530;2023-02-01T18:06:21;4.90;99.90
30174;DHT22;16985;50.814;8.530;2023-02-01T18:11:19;4.80;99.90
30174;DHT22;16985;50.814;8.530;2023-02-01T18:13:52;4.80;99.90
30174;DHT22;16985;50.814;8.530;2023-02-01T18:16:22;4.80;99.90
30174;DHT22;16985;50.814;8.530;2023-02-01T18:18:51;4.90;99.90
30174;DHT22;16985;50.814;8.530;2023-02-01T18:21:22;4.90;99.90
30174;DHT22;16985;50.814;8.530;2023-02-01T18:26:17;4.90;99.90
30174;DHT22;16985;50.814;8.530;2023-02-01T18:28:43;4.80;99.90
30174;DHT22;16985;50.814;8.530;2023-02-01T18:31:37;4.70;99.90
30174;DHT22;16985;50.814;8.530;2023-02-01T18:34:08;4.70;99.90
30174;DHT22;16985;50.814;8.530;2023-02-01T18:41:27;4.80;99.90
30174;DHT22;16985;50.814;8.530;2023-02-01T18:51:16;5.00;99.90
30174;DHT22;16985;50.814;8.530;2023-02-01T18:53:44;4.90;99.90
30174;DHT22;16985;50.814;8.530;2023-02-01T18:56:12;5.00;99.90
30174;DHT22;16985;50.814;8.530;2023-02-01T18:58:39;5.00;99.90
30174;DHT22;16985;50.814;8.530;2023-02-01T19:01:07;5.00;99.90
30174;DHT22;16985;50.814;8.530;2023-02-01T19:08:30;5.00;99.90
30174;DHT22;16985;50.814;8.530;2023-02-01T19:10:56;5.00;99.90
30174;DHT22;16985;50.814;8.530;2023-02-01T19:13:25;5.00;99.90
30174;DHT22;16985;50.814;8.530;2023-02-01T19:15:55;5.00;99.90
30174;DHT22;16985;50.814;8.530;2023-02-01T19:18:24;5.00;99.90
30174;DHT22;16985;50.814;8.530;2023-02-01T19:20:49;5.10;99.90
30174;DHT22;16985;50.814;8.530;2023-02-01T19:23:17;5.00;99.90
30174;DHT22;16985;50.814;8.530;2023-02-01T19:25:44;5.00;99.90
30174;DHT22;16985;50.814;8.530;2023-02-01T19:28:14;5.00;99.90
30174;DHT22;16985;50.814;8.530;2023-02-01T19:30:40;5.10;99.90
30174;DHT22;16985;50.814;8.530;2023-02-01T19:33:06;5.50;99.90
30174;DHT22;16985;50.814;8.530;2023-02-01T19:35:32;5.00;99.90
30174;DHT22;16985;50.814;8.530;2023-02-01T19:37:58;5.00;99.90
30174;DHT22;16985;50.814;8.530;2023-02-01T19:40:24;5.10;99.90